Time;durP1;ratioP1;P1;durP2;ratioP2;P2;SDS_P1;SDS_P2;PMS_P1;PMS_P2;Temp;Humidity;BMP_temperature;BMP_pressure;BME280_temperature;BME280_humidity;BME280_pressure;Samples;Min_cycle;Max_cycle;Signal;HPM_P1;HPM_P2
2023/01/27 00:00:28;;;;;;;37.30;19.30;;;;;;;-1.57;89.88;100185.60;109991;1275;139662;-67
2023/01/27 00:02:55;;;;;;;;;;;;;;;-1.58;90.24;100189.33;110078;1273;22381;-65
2023/01/27 00:05:22;;;;;;;33.30;18.80;;;;;;;-1.60;90.45;100184.21;110042;1273;22215;-65
2023/01/27 00:07:49;;;;;;;35.40;17.90;;;;;;;-1.62;90.17;100183.34;109914;1272;138169;-65
2023/01/27 00:10:17;;;;;;;36.80;19.00;;;;;;;-1.63;90.18;100183.96;110035;1273;22350;-65
2023/01/27 00:15:30;;;;;;;39.20;20.30;;;;;;;-1.63;90.14;100187.73;110059;1271;22224;-64
2023/01/27 00:17:57;;;;;;;37.60;18.90;;;;;;;-1.63;90.43;100182.48;110044;1279;23351;-65
2023/01/27 00:26:05;;;;;;;35.20;18.30;;;;;;;-1.58;90.02;100174.67;109964;1275;139890;-65
2023/01/27 00:28:35;;;;;;;34.50;17.70;;;;;;;-1.57;90.27;100175.80;110050;1279;22468;-64
2023/01/27 00:31:02;;;;;;;30.40;17.30;;;;;;;-1.57;89.73;100169.73;109866;1273;138692;-64
2023/01/27 00:33:28;;;;;;;;;;;;;;;-1.57;90.18;100168.42;110100;1272;22437;-65
2023/01/27 00:35:59;;;;;;;29.10;17.00;;;;;;;-1.55;90.09;100163.26;109966;1273;22370;-65
2023/01/27 00:38:27;;;;;;;35.60;18.30;;;;;;;-1.53;89.94;100168.77;109932;1273;138648;-65
2023/01/27 00:43:39;;;;;;;35.20;19.50;;;;;;;-1.49;89.57;100170.66;109920;1279;138374;-64
2023/01/27 00:46:08;;;;;;;35.00;17.80;;;;;;;-1.49;89.51;100172.23;109994;1279;22229;-63
2023/01/27 00:48:35;;;;;;;;;;;;;;;-1.51;89.08;100172.99;109964;1279;139549;-63
2023/01/27 00:51:02;;;;;;;32.40;17.50;;;;;;;-1.54;89.11;100168.67;110034;1279;22523;-63
2023/01/27 00:53:29;;;;;;;31.00;17.60;;;;;;;-1.55;88.85;100170.46;110064;1279;22342;-64
2023/01/27 00:55:57;;;;;;;;;;;;;;;-1.55;88.94;100164.55;109982;1276;138358;-63
2023/01/27 00:58:24;;;;;;;35.50;17.90;;;;;;;-1.54;88.96;100164.99;109906;1279;22289;-64
2023/01/27 01:00:55;;;;;;;31.10;17.50;;;;;;;-1.54;88.84;100163.05;109864;1276;139318;-63
2023/01/27 01:03:23;;;;;;;33.60;16.50;;;;;;;-1.53;88.42;100166.50;109957;1278;22215;-63
2023/01/27 01:05:50;;;;;;;33.70;17.70;;;;;;;-1.50;88.55;100161.00;109948;1279;22975;-63
2023/01/27 01:08:17;;;;;;;29.90;16.50;;;;;;;-1.49;88.52;100157.80;109823;1279;139881;-63
2023/01/27 01:10:44;;;;;;;33.20;19.00;;;;;;;-1.48;88.30;100155.80;110073;1279;22930;-63
2023/01/27 01:13:11;;;;;;;28.40;16.00;;;;;;;-1.49;88.36;100157.49;109793;1280;138608;-63
2023/01/27 01:15:38;;;;;;;31.50;16.80;;;;;;;-1.52;88.41;100153.68;110019;1279;22330;-62
2023/01/27 01:18:07;;;;;;;30.30;16.80;;;;;;;-1.56;88.25;100148.42;109935;1279;22284;-62
2023/01/27 01:20:37;;;;;;;34.30;19.70;;;;;;;-1.60;88.40;100146.20;109946;1279;138803;-62
2023/01/27 01:23:04;;;;;;;33.60;18.40;;;;;;;-1.61;88.47;100146.36;110065;1279;22225;-62
2023/01/27 01:25:32;;;;;;;29.90;16.50;;;;;;;-1.61;88.58;100141.89;109919;1275;138695;-63
2023/01/27 01:27:59;;;;;;;35.20;18.20;;;;;;;-1.60;88.86;100134.07;110115;1279;22338;-63
2023/01/27 01:30:26;;;;;;;34.50;16.40;;;;;;;-1.58;88.72;100130.88;110042;1279;22221;-62
2023/01/27 01:32:53;;;;;;;31.00;17.10;;;;;;;-1.57;88.86;100133.42;110049;1279;22415;-62
2023/01/27 01:35:20;;;;;;;33.40;18.00;;;;;;;-1.54;89.04;100132.23;110004;1279;22229;-63
2023/01/27 01:37:47;;;;;;;29.60;17.00;;;;;;;-1.54;88.85;100126.66;109877;1279;139015;-63
2023/01/27 01:40:13;;;;;;;33.40;17.20;;;;;;;-1.53;88.76;100128.59;109938;1280;22394;-65
2023/01/27 01:42:59;;;;;;;31.40;17.70;;;;;;;-1.55;88.63;100127.09;109828;1279;138952;-65
2023/01/27 01:45:35;;;;;;;30.70;17.30;;;;;;;-1.56;88.67;100120.30;109959;1281;22254;-66
2023/01/27 01:48:07;;;;;;;33.30;18.10;;;;;;;-1.56;88.89;100120.06;110033;1276;22193;-66
2023/01/27 01:50:33;;;;;;;33.00;16.80;;;;;;;-1.56;88.82;100118.50;109734;1273;138685;-65
2023/01/27 01:53:00;;;;;;;29.70;16.60;;;;;;;-1.57;88.45;100112.91;109718;1279;22342;-65
2023/01/27 01:55:27;;;;;;;;;;;;;;;-1.57;88.57;100113.78;109822;1280;138346;-65
2023/01/27 01:57:53;;;;;;;25.70;15.00;;;;;;;-1.56;88.52;100114.45;109890;1279;22472;-65
2023/01/27 02:00:20;;;;;;;31.40;17.10;;;;;;;-1.56;88.45;100111.55;109844;1280;22906;-65
2023/01/27 02:02:47;;;;;;;34.00;16.60;;;;;;;-1.55;88.47;100115.20;109897;1273;138826;-65
2023/01/27 02:05:18;;;;;;;26.20;15.60;;;;;;;-1.54;88.53;100116.30;109906;1280;22230;-65
2023/01/27 02:07:53;;;;;;;31.60;17.50;;;;;;;-1.53;88.57;100110.16;109685;1273;138900;-65
2023/01/27 02:10:22;;;;;;;31.60;17.80;;;;;;;-1.52;88.52;100102.38;109774;1281;22191;-65
2023/01/27 02:12:49;;;;;;;31.50;17.50;;;;;;;-1.52;88.37;100100.64;109869;1279;138729;-65
2023/01/27 02:15:16;;;;;;;30.70;17.60;;;;;;;-1.52;88.34;100099.04;109917;1280;22202;-65
2023/01/27 02:17:44;;;;;;;34.50;17.50;;;;;;;-1.52;88.39;100098.14;109889;1279;22462;-65
2023/01/27 02:20:39;;;;;;;32.80;17.70;;;;;;;-1.53;88.39;100095.42;109758;1273;139594;-65
2023/01/27 02:23:21;;;;;;;33.60;17.50;;;;;;;-1.59;88.23;100090.73;109821;1275;22959;-65
2023/01/27 02:25:58;;;;;;;43.60;22.30;;;;;;;-1.57;88.26;100098.69;109885;1279;138678;-65
2023/01/27 02:28:26;;;;;;;36.90;19.90;;;;;;;-1.59;88.20;100096.57;109861;1279;22180;-65
2023/01/27 02:30:57;;;;;;;41.50;21.70;;;;;;;-1.62;88.26;100093.33;109745;1278;139799;-65
2023/01/27 02:33:23;;;;;;;;;;;;;;;-1.65;88.05;100094.55;109897;1279;23353;-66
2023/01/27 02:36:06;;;;;;;38.10;19.70;;;;;;;-1.66;88.29;100098.29;110011;1279;22232;-66
2023/01/27 02:38:36;;;;;;;35.40;20.10;;;;;;;-1.69;88.20;100098.92;109756;1279;139747;-66
2023/01/27 02:41:55;;;;;;;38.80;20.50;;;;;;;-1.72;88.01;100100.27;109862;1279;22190;-66
2023/01/27 02:44:21;;;;;;;36.30;20.10;;;;;;;-1.78;88.27;100099.19;109293;1287;138922;-65
2023/01/27 02:46:48;;;;;;;40.60;23.50;;;;;;;-1.78;88.50;100099.36;109458;1287;22456;-65
2023/01/27 02:49:15;;;;;;;38.40;19.80;;;;;;;-1.75;88.64;100106.17;109297;1284;138971;-66
2023/01/27 02:51:42;;;;;;;40.90;21.10;;;;;;;-1.76;88.69;100111.31;109452;1287;22280;-65
2023/01/27 02:54:08;;;;;;;;;;;;;;;-1.77;88.61;100108.37;109515;1283;23616;-65
2023/01/27 02:56:35;;;;;;;44.20;23.20;;;;;;;-1.76;88.88;100108.94;109291;1287;125263;-65
2023/01/27 02:59:01;;;;;;;42.70;21.50;;;;;;;-1.76;88.99;100104.23;109437;1287;23202;-65
2023/01/27 03:01:35;;;;;;;41.50;19.80;;;;;;;-1.76;89.04;100102.95;109282;1288;139470;-65
2023/01/27 03:04:01;;;;;;;46.90;23.60;;;;;;;-1.78;88.87;100106.46;109404;1284;22293;-64
2023/01/27 03:06:32;;;;;;;45.90;23.80;;;;;;;-1.79;89.12;100102.62;109354;1282;139029;-65
2023/01/27 03:08:59;;;;;;;46.10;23.80;;;;;;;-1.79;89.17;100099.95;109521;1286;22271;-64
2023/01/27 03:14:11;;;;;;;39.10;21.60;;;;;;;-1.80;88.94;100095.80;109354;1287;139095;-65
2023/01/27 03:19:25;;;;;;;37.90;20.80;;;;;;;-1.82;89.36;100090.19;109481;1279;126297;-65
2023/01/27 03:21:52;;;;;;;45.20;23.50;;;;;;;-1.83;88.94;100089.77;109990;1279;22279;-65
2023/01/27 03:24:20;;;;;;;41.90;23.40;;;;;;;-1.84;89.08;100089.45;109883;1279;22441;-65
2023/01/27 03:26:46;;;;;;;;;;;;;;;-1.85;89.03;100087.77;109804;1276;138422;-65
2023/01/27 03:32:00;;;;;;;40.10;24.30;;;;;;;-1.86;88.89;100085.96;109775;1279;139346;-65
2023/01/27 03:34:28;;;;;;;40.60;21.60;;;;;;;-1.86;89.11;100083.33;109906;1279;22287;-65
2023/01/27 03:48:04;;;;;;;43.40;23.10;;;;;;;-2.01;89.08;100078.36;109948;1276;22276;-65
2023/01/27 03:50:41;;;;;;;46.40;22.80;;;;;;;-2.04;89.25;100076.58;109929;1279;138492;-65
2023/01/27 03:53:09;;;;;;;43.20;23.20;;;;;;;-2.05;89.31;100076.17;109980;1273;22458;-65
2023/01/27 03:55:36;;;;;;;42.10;22.30;;;;;;;-2.06;89.34;100070.36;109929;1276;140487;-65
2023/01/27 03:58:18;;;;;;;40.00;22.20;;;;;;;-2.06;89.31;100074.42;109946;1279;22216;-65
2023/01/27 04:00:46;;;;;;;40.50;22.10;;;;;;;-2.07;89.29;100074.52;109775;1279;138691;-65
2023/01/27 04:08:47;;;;;;;43.30;22.80;;;;;;;-2.05;89.79;100082.30;109918;1279;138283;-65
2023/01/27 04:14:00;;;;;;;38.40;22.20;;;;;;;-2.00;89.81;100084.84;109875;1279;140638;-66
2023/01/27 04:16:29;;;;;;;42.20;23.00;;;;;;;-1.99;89.90;100083.64;109790;1279;244955;-65
2023/01/27 04:20:12;;;;;;;40.50;22.10;;;;;;;-1.96;89.86;100081.88;102640;1308;544827;-63
2023/01/27 04:22:40;;;;;;;44.30;24.60;;;;;;;-1.97;89.59;100082.52;104896;1285;22574;-64
2023/01/27 04:25:08;;;;;;;43.30;23.90;;;;;;;-1.94;89.66;100080.48;104889;1285;138936;-64
2023/01/27 04:27:41;;;;;;;42.30;24.00;;;;;;;-1.96;89.56;100081.21;109366;1288;22255;-66
2023/01/27 04:30:09;;;;;;;40.20;22.80;;;;;;;-1.99;89.50;100086.65;109382;1291;22186;-65
2023/01/27 04:32:37;;;;;;;42.80;23.10;;;;;;;-2.03;89.70;100086.21;109284;1291;137660;-64
2023/01/27 04:35:06;;;;;;;38.00;22.10;;;;;;;-2.04;89.89;100090.26;109373;1285;22202;-65
2023/01/27 04:37:34;;;;;;;36.80;21.30;;;;;;;-2.06;89.76;100091.36;109437;1288;137962;-65
2023/01/27 04:40:03;;;;;;;42.40;23.10;;;;;;;-2.07;89.88;100096.05;109509;1288;22218;-65
2023/01/27 04:42:31;;;;;;;44.30;25.10;;;;;;;-2.08;89.89;100093.71;109407;1288;139064;-65
2023/01/27 04:44:59;;;;;;;42.90;23.60;;;;;;;-2.09;89.92;100095.80;109509;1285;22169;-65
2023/01/27 04:47:32;;;;;;;35.30;20.40;;;;;;;-2.12;90.03;100097.45;109508;1286;22254;-66
2023/01/27 04:50:01;;;;;;;37.30;22.20;;;;;;;-2.15;90.19;100087.91;109390;1282;137978;-66
2023/01/27 04:52:29;;;;;;;39.20;22.30;;;;;;;-2.11;90.19;100095.27;109536;1281;22370;-66
2023/01/27 04:54:57;;;;;;;40.30;22.70;;;;;;;-2.11;90.11;100098.84;109444;1282;138210;-66
2023/01/27 04:57:26;;;;;;;37.80;22.40;;;;;;;-2.11;90.01;100094.59;109322;1290;22358;-66
2023/01/27 04:59:54;;;;;;;45.90;24.20;;;;;;;-2.12;90.11;100100.30;109306;1282;22320;-65
2023/01/27 05:02:22;;;;;;;41.00;21.90;;;;;;;-2.12;90.31;100096.59;109335;1289;139084;-66
2023/01/27 05:04:49;;;;;;;40.00;22.60;;;;;;;-2.11;90.05;100098.53;109451;1289;22260;-66
2023/01/27 05:07:17;;;;;;;37.90;21.00;;;;;;;-2.13;90.20;100096.95;109361;1283;138265;-66
2023/01/27 05:09:45;;;;;;;38.50;21.80;;;;;;;-2.11;90.33;100100.56;109445;1290;22828;-66
2023/01/27 05:12:14;;;;;;;38.90;22.40;;;;;;;-2.14;90.29;100097.65;109421;1289;22215;-66
2023/01/27 05:14:42;;;;;;;41.60;21.80;;;;;;;-2.16;90.40;100093.44;109300;1290;138466;-65
2023/01/27 05:17:10;;;;;;;37.90;21.20;;;;;;;-2.18;90.42;100096.39;109414;1282;22355;-65
2023/01/27 05:19:38;;;;;;;38.90;23.00;;;;;;;-2.22;90.39;100096.55;109288;1290;138372;-66
2023/01/27 05:22:07;;;;;;;40.90;22.30;;;;;;;-2.25;90.50;100098.52;109394;1284;22192;-66
2023/01/27 05:24:37;;;;;;;44.40;22.50;;;;;;;-2.23;90.24;100099.23;109294;1290;138433;-66
2023/01/27 05:27:05;;;;;;;36.40;21.50;;;;;;;-2.22;90.43;100100.36;109404;1289;22285;-66
2023/01/27 05:29:33;;;;;;;33.90;20.00;;;;;;;-2.22;90.56;100098.94;109355;1284;22267;-66
2023/01/27 05:32:01;;;;;;;45.20;22.70;;;;;;;-2.23;90.43;100100.47;109271;1290;139263;-66
2023/01/27 05:34:29;;;;;;;42.40;23.80;;;;;;;-2.25;90.51;100097.08;109328;1287;22221;-64
2023/01/27 05:36:57;;;;;;;44.50;22.40;;;;;;;-2.27;90.44;100097.08;109953;1272;138148;-64
2023/01/27 05:39:25;;;;;;;40.40;22.50;;;;;;;-2.30;90.51;100096.25;109518;1272;25275;-63
2023/01/27 05:41:53;;;;;;;41.50;22.70;;;;;;;-2.33;90.50;100098.48;105860;1279;25335;-64
2023/01/27 05:44:21;;;;;;;43.30;23.40;;;;;;;-2.37;90.46;100100.89;105669;1272;138223;-63
2023/01/27 05:46:49;;;;;;;33.30;19.60;;;;;;;-2.43;90.20;100103.14;105799;1272;25412;-62
2023/01/27 05:49:17;;;;;;;37.00;20.70;;;;;;;-2.50;90.46;100106.80;109892;1279;138681;-63
2023/01/27 05:51:45;;;;;;;41.60;22.70;;;;;;;-2.54;90.46;100103.52;110011;1272;22313;-63
2023/01/27 05:54:13;;;;;;;37.10;20.10;;;;;;;-2.55;90.41;100101.19;109983;1272;22337;-63
2023/01/27 05:56:41;;;;;;;40.40;22.70;;;;;;;-2.57;90.73;100101.59;109998;1278;138034;-63
2023/01/27 05:59:09;;;;;;;39.50;22.40;;;;;;;-2.58;91.02;100103.89;110038;1279;22853;-64
2023/01/27 06:01:37;;;;;;;45.90;23.80;;;;;;;-2.55;91.18;100096.20;109962;1272;138537;-64
2023/01/27 06:04:05;;;;;;;45.70;25.00;;;;;;;-2.52;91.26;100101.19;110059;1272;22324;-63
2023/01/27 06:06:33;;;;;;;46.80;25.30;;;;;;;-2.53;91.16;100100.74;109986;1272;138182;-64
2023/01/27 06:09:02;;;;;;;49.30;26.70;;;;;;;-2.54;91.31;100105.98;110045;1275;22235;-63
2023/01/27 06:11:30;;;;;;;43.70;24.30;;;;;;;-2.54;91.29;100104.95;110038;1272;22167;-64
2023/01/27 06:14:00;;;;;;;51.20;28.10;;;;;;;-2.54;91.20;100110.48;109976;1279;138297;-64
2023/01/27 06:16:29;;;;;;;48.00;24.80;;;;;;;-2.54;91.38;100110.45;110073;1279;22202;-63
2023/01/27 06:18:57;;;;;;;44.70;25.20;;;;;;;-2.54;91.37;100111.14;109954;1279;138845;-63
2023/01/27 06:21:25;;;;;;;47.40;25.10;;;;;;;-2.54;91.39;100114.61;110067;1272;22254;-63
2023/01/27 06:23:54;;;;;;;41.40;23.00;;;;;;;-2.56;91.23;100116.51;110050;1278;22319;-64
2023/01/27 06:26:22;;;;;;;50.60;24.60;;;;;;;-2.63;91.42;100107.52;109929;1272;138537;-63
2023/01/27 06:28:50;;;;;;;51.30;25.80;;;;;;;-2.57;91.34;100120.02;109976;1272;22325;-63
2023/01/27 06:31:20;;;;;;;46.20;26.00;;;;;;;-2.58;91.46;100115.48;109879;1272;138408;-65
2023/01/27 06:33:49;;;;;;;54.40;28.10;;;;;;;-2.58;91.30;100118.15;110080;1279;22385;-64
2023/01/27 06:36:18;;;;;;;49.00;27.00;;;;;;;-2.57;91.46;100119.66;110043;1272;23020;-62
2023/01/27 06:38:47;;;;;;;49.50;26.90;;;;;;;-2.59;91.72;100106.39;109968;1279;139379;-65
2023/01/27 06:41:15;;;;;;;48.40;26.00;;;;;;;-2.54;91.49;100107.94;110065;1272;22213;-63
2023/01/27 06:43:43;;;;;;;48.50;25.80;;;;;;;-2.53;91.63;100106.78;109984;1279;139008;-72
2023/01/27 06:46:11;;;;;;;52.40;26.80;;;;;;;-2.54;91.31;100109.71;110059;1279;22185;-64
2023/01/27 06:48:39;;;;;;;51.60;27.10;;;;;;;-2.53;91.59;100111.45;109993;1272;138216;-64
2023/01/27 06:51:09;;;;;;;55.10;26.20;;;;;;;-2.54;91.54;100111.17;110056;1276;22201;-64
2023/01/27 06:53:37;;;;;;;44.20;24.00;;;;;;;-2.55;91.39;100113.58;110047;1272;22400;-65
2023/01/27 06:56:05;;;;;;;48.40;24.30;;;;;;;-2.56;91.50;100115.33;109993;1279;139033;-65
2023/01/27 06:58:34;;;;;;;54.50;27.90;;;;;;;-2.60;91.59;100111.11;110074;1279;22419;-65
2023/01/27 07:01:04;;;;;;;54.50;26.70;;;;;;;-2.57;91.63;100116.33;109915;1272;138153;-65
2023/01/27 07:03:32;;;;;;;59.20;29.00;;;;;;;-2.58;91.41;100113.85;109956;1279;22191;-64
2023/01/27 07:05:59;;;;;;;61.60;27.80;;;;;;;-2.57;91.63;100114.02;110068;1279;22376;-65
2023/01/27 07:08:27;;;;;;;64.40;30.00;;;;;;;-2.61;91.44;100112.98;109994;1272;140203;-65
2023/01/27 07:10:56;;;;;;;63.50;30.40;;;;;;;-2.68;91.04;100111.54;110080;1272;22335;-65
2023/01/27 07:13:24;;;;;;;55.30;26.20;;;;;;;-2.74;90.93;100109.38;109923;1272;138482;-65
2023/01/27 07:15:54;;;;;;;70.20;31.00;;;;;;;-2.80;90.96;100110.38;110091;1279;22953;-64
2023/01/27 07:18:22;;;;;;;65.80;30.30;;;;;;;-2.84;91.09;100112.14;110134;1279;22337;-64
2023/01/27 07:20:50;;;;;;;56.50;28.50;;;;;;;-2.86;91.26;100112.17;109974;1279;138515;-63
2023/01/27 07:23:18;;;;;;;62.60;32.60;;;;;;;-2.86;91.63;100112.53;110138;1279;23308;-65
2023/01/27 07:25:46;;;;;;;57.60;29.40;;;;;;;-2.86;91.75;100112.87;109993;1279;138210;-64
2023/01/27 07:28:14;;;;;;;61.80;30.70;;;;;;;-2.85;91.91;100116.00;110097;1275;22207;-65
2023/01/27 07:30:42;;;;;;;61.70;30.00;;;;;;;-2.85;91.74;100117.80;109994;1279;138306;-64
2023/01/27 07:33:11;;;;;;;65.50;32.10;;;;;;;-2.85;91.81;100120.13;110144;1278;22352;-64
2023/01/27 07:35:41;;;;;;;69.90;32.80;;;;;;;-2.84;92.12;100122.67;110056;1272;22670;-64
2023/01/27 07:38:09;;;;;;;61.40;30.60;;;;;;;-2.85;92.20;100121.34;109925;1275;142953;-64
2023/01/27 07:40:37;;;;;;;64.70;32.50;;;;;;;-2.83;92.19;100119.41;110085;1272;22985;-65
2023/01/27 07:43:05;;;;;;;64.00;32.70;;;;;;;-2.81;92.32;100115.94;109902;1272;138738;-65
2023/01/27 07:45:34;;;;;;;67.10;32.70;;;;;;;-2.79;92.35;100114.02;109875;1275;22200;-64
2023/01/27 07:48:07;;;;;;;78.40;36.70;;;;;;;-2.77;92.62;100106.53;110022;1279;22291;-65
2023/01/27 09:38:01;;;;;;;83.40;38.20;;;;;;;-3.30;95.91;100080.86;103338;1308;544896;-61
2023/01/27 09:40:40;;;;;;;101.20;41.90;;;;;;;-3.29;95.86;100082.13;105550;1281;25432;-61
2023/01/27 09:43:23;;;;;;;91.00;39.80;;;;;;;-3.24;95.82;100077.01;105855;1278;25354;-62
2023/01/27 09:45:53;;;;;;;96.20;39.20;;;;;;;-3.18;95.74;100079.12;105896;1273;25357;-59
2023/01/27 09:48:41;;;;;;;82.40;36.50;;;;;;;-3.12;95.66;100076.88;109939;1274;23026;-60
2023/01/27 09:51:28;;;;;;;94.40;41.30;;;;;;;-3.04;95.81;100079.60;109868;1272;197645;-59
2023/01/27 09:53:56;;;;;;;85.10;36.10;;;;;;;-2.96;95.70;100077.18;110122;1273;22221;-60
2023/01/27 09:56:31;;;;;;;75.30;33.20;;;;;;;-2.89;95.60;100077.47;110068;1271;22439;-62
2023/01/27 09:59:08;;;;;;;79.20;34.90;;;;;;;-2.80;95.45;100070.55;110023;1276;22246;-60
2023/01/27 10:02:03;;;;;;;84.20;38.00;;;;;;;-2.70;95.49;100069.89;110131;1272;22286;-60
2023/01/27 10:04:56;;;;;;;79.30;36.90;;;;;;;-2.60;95.27;100068.23;110040;1273;22333;-60
2023/01/27 10:07:33;;;;;;;76.90;36.00;;;;;;;-2.54;95.00;100071.54;105994;1272;24210;-56
2023/01/27 10:10:25;;;;;;;75.60;36.60;;;;;;;-2.45;94.72;100071.50;105751;1273;25338;-57
2023/01/27 10:13:07;;;;;;;68.90;32.10;;;;;;;-2.40;94.29;100066.54;105949;1278;26529;-57
2023/01/27 10:15:45;;;;;;;68.80;33.50;;;;;;;-2.35;94.00;100066.02;105885;1278;22544;-57
2023/01/27 10:18:29;;;;;;;75.10;34.20;;;;;;;-2.30;94.14;100068.59;105853;1274;22539;-57
2023/01/27 10:21:12;;;;;;;84.70;40.40;;;;;;;-2.23;93.93;100072.88;105931;1272;25389;-57
2023/01/27 10:24:05;;;;;;;75.80;35.40;;;;;;;-2.18;93.63;100071.44;106004;1275;26041;-57
2023/01/27 10:27:00;;;;;;;78.00;34.90;;;;;;;-2.14;93.64;100072.39;105939;1278;25425;-57
2023/01/27 10:29:46;;;;;;;73.90;34.10;;;;;;;-2.13;93.28;100070.16;105955;1276;22610;-57
2023/01/27 10:32:22;;;;;;;80.40;35.60;;;;;;;-2.12;92.96;100071.36;110007;1279;22935;-57
2023/01/27 10:35:01;;;;;;;77.50;36.80;;;;;;;-2.13;92.90;100069.13;110185;1279;23233;-57
2023/01/27 10:37:40;;;;;;;78.90;39.60;;;;;;;-2.14;92.57;100067.42;106106;1276;25334;-55
2023/01/27 10:40:30;;;;;;;75.10;36.30;;;;;;;-2.15;92.41;100061.14;105996;1276;25433;-55
2023/01/27 10:43:12;;;;;;;76.90;34.90;;;;;;;-2.15;92.48;100059.52;110081;1279;23008;-56
2023/01/27 10:45:45;;;;;;;79.80;37.80;;;;;;;-2.15;92.39;100055.80;110195;1277;22330;-57
2023/01/27 10:48:49;;;;;;;79.30;38.70;;;;;;;-2.15;92.33;100051.87;110017;1279;22936;-56
2023/01/27 10:51:20;;;;;;;84.70;39.70;;;;;;;-2.13;92.37;100041.37;110149;1273;22369;-54
2023/01/27 10:54:02;;;;;;;75.60;37.60;;;;;;;-2.10;92.56;100042.31;110123;1279;22483;-54
2023/01/27 10:56:43;;;;;;;83.80;42.50;;;;;;;-2.07;92.70;100042.35;110120;1273;22938;-56
2023/01/27 10:59:19;;;;;;;89.00;42.20;;;;;;;-2.03;92.63;100044.17;110008;1279;22984;-54
2023/01/27 11:01:53;;;;;;;82.70;40.70;;;;;;;-1.99;92.54;100035.29;110043;1279;22361;-55
2023/01/27 11:04:35;;;;;;;78.20;38.10;;;;;;;-1.97;92.27;100039.16;110108;1276;23101;-55
2023/01/27 11:07:04;;;;;;;92.50;45.60;;;;;;;-1.95;92.57;100035.16;110085;1273;22198;-57
2023/01/27 11:09:36;;;;;;;88.80;40.90;;;;;;;-1.92;92.33;100029.99;110023;1273;22406;-56
2023/01/27 11:12:08;;;;;;;90.60;42.10;;;;;;;-1.90;92.42;100027.27;109994;1279;22384;-56
2023/01/27 11:14:47;;;;;;;98.50;49.10;;;;;;;-1.87;92.31;100026.75;110018;1279;23114;-56
2023/01/27 11:17:37;;;;;;;79.60;39.80;;;;;;;-1.86;92.42;100024.78;110124;1277;22187;-56
2023/01/27 11:20:34;;;;;;;90.90;43.30;;;;;;;-1.83;92.11;100034.37;110522;1274;22537;-56
2023/01/27 11:23:08;;;;;;;82.30;39.20;;;;;;;-1.82;92.33;100032.53;110467;1273;22439;-56
2023/01/27 11:25:52;;;;;;;86.20;41.80;;;;;;;-1.79;92.33;100032.70;110450;1270;22992;-57
2023/01/27 11:28:27;;;;;;;75.40;35.70;;;;;;;-1.77;92.12;100024.34;110472;1273;22386;-57
2023/01/27 11:31:02;;;;;;;81.80;37.70;;;;;;;-1.75;92.11;100022.47;110476;1273;22399;-56
2023/01/27 11:33:59;;;;;;;71.10;35.10;;;;;;;-1.73;92.08;100023.86;110465;1270;22939;-57
2023/01/27 11:36:27;;;;;;;91.00;43.80;;;;;;;-1.71;91.85;100026.85;110503;1273;22309;-56
2023/01/27 11:38:56;;;;;;;75.10;40.50;;;;;;;-1.71;91.88;100023.27;110469;1272;22319;-56
2023/01/27 11:41:24;;;;;;;82.20;40.20;;;;;;;-1.70;91.76;100023.02;110511;1273;22164;-55
2023/01/27 11:43:52;;;;;;;85.30;41.70;;;;;;;-1.70;91.62;100015.14;110468;1276;22254;-54
2023/01/27 11:46:22;;;;;;;95.70;44.30;;;;;;;-1.70;91.50;100011.27;110509;1274;22188;-55
2023/01/27 11:48:54;;;;;;;88.20;46.30;;;;;;;-1.65;91.70;100008.07;110378;1273;22440;-55
2023/01/27 11:51:27;;;;;;;83.00;44.00;;;;;;;-1.62;91.50;100004.87;110433;1275;22420;-55
2023/01/27 11:54:15;;;;;;;85.90;45.20;;;;;;;-1.59;91.79;100009.34;110460;1267;22400;-55
2023/01/27 11:56:45;;;;;;;80.30;43.40;;;;;;;-1.57;91.47;100015.66;110497;1267;22272;-55
2023/01/27 11:59:17;;;;;;;86.30;42.60;;;;;;;-1.55;91.62;100017.27;110480;1274;22319;-55
2023/01/27 12:01:48;;;;;;;88.90;44.10;;;;;;;-1.53;91.57;100013.46;110478;1276;22359;-54
2023/01/27 12:04:48;;;;;;;82.00;41.30;;;;;;;-1.51;91.37;100008.13;110518;1267;22340;-54
2023/01/27 12:07:22;;;;;;;76.40;39.20;;;;;;;-1.50;91.17;100010.39;110508;1267;22901;-55
2023/01/27 12:09:51;;;;;;;91.60;42.60;;;;;;;-1.51;91.14;100008.46;110506;1267;22893;-54
2023/01/27 12:12:24;;;;;;;89.50;43.70;;;;;;;-1.47;91.03;100016.17;110466;1267;22184;-55
2023/01/27 12:14:58;;;;;;;84.30;44.40;;;;;;;-1.46;90.90;100017.66;110496;1275;22241;-55
2023/01/27 12:17:50;;;;;;;84.80;44.50;;;;;;;-1.46;90.86;100015.17;110491;1270;22370;-57
2023/01/27 12:20:35;;;;;;;91.00;46.60;;;;;;;-1.47;90.65;100011.51;110483;1270;22326;-56
2023/01/27 12:23:24;;;;;;;105.90;55.30;;;;;;;-1.49;90.79;100004.42;110522;1275;22359;-56
2023/01/27 12:26:01;;;;;;;93.70;46.90;;;;;;;-1.50;90.47;100004.09;110513;1267;22297;-56
2023/01/27 12:28:38;;;;;;;93.60;46.00;;;;;;;-1.51;90.69;99999.91;110523;1275;22200;-56
2023/01/27 12:31:06;;;;;;;;;;;;;;;-1.51;90.76;99994.00;110504;1275;22421;-57
2023/01/27 12:33:39;;;;;;;102.90;52.00;;;;;;;-1.51;90.71;99996.14;110464;1270;23025;-57
2023/01/27 12:36:15;;;;;;;96.50;49.90;;;;;;;-1.51;90.77;99993.09;110389;1274;22189;-57
2023/01/27 12:38:54;;;;;;;95.60;49.90;;;;;;;-1.52;90.46;99991.77;110356;1270;22927;-56
2023/01/27 12:41:31;;;;;;;91.60;46.50;;;;;;;-1.53;90.54;99989.22;110436;1275;22215;-57
2023/01/27 12:44:16;;;;;;;99.50;50.70;;;;;;;-1.53;90.45;99987.11;110384;1275;22206;-57
2023/01/27 12:47:18;;;;;;;149.50;69.60;;;;;;;-1.54;90.37;99991.63;110531;1274;22181;-57
2023/01/27 12:49:47;;;;;;;100.70;51.20;;;;;;;-1.55;90.21;99989.95;110463;1273;22196;-57
2023/01/27 12:52:19;;;;;;;95.70;49.20;;;;;;;-1.55;90.42;99996.90;110495;1267;22377;-57
2023/01/27 12:54:50;;;;;;;94.90;46.80;;;;;;;-1.54;90.32;99997.36;110545;1269;22408;-57
2023/01/27 12:57:19;;;;;;;115.70;54.50;;;;;;;-1.55;90.25;99993.33;110500;1270;22377;-53
2023/01/27 12:59:49;;;;;;;110.20;56.10;;;;;;;-1.55;90.23;99987.98;110510;1274;22213;-53
2023/01/27 13:02:19;;;;;;;103.80;50.40;;;;;;;-1.56;90.25;99986.14;110489;1269;22329;-53
2023/01/27 13:04:55;;;;;;;99.60;51.40;;;;;;;-1.56;90.35;99988.32;110343;1270;22302;-53
2023/01/27 14:50:28;;;;;;;75.80;36.20;;;;;;;-3.06;93.17;100030.25;103101;1305;545866;-57
2023/01/27 14:53:15;;;;;;;69.50;34.40;;;;;;;-3.10;93.31;100032.29;109682;1287;23023;-58
2023/01/27 14:55:49;;;;;;;64.70;33.40;;;;;;;-3.14;93.46;100025.02;108573;1280;22677;-59
2023/01/27 14:58:28;;;;;;;67.30;34.60;;;;;;;-3.09;93.46;100030.33;105422;1288;25338;-58
2023/01/27 15:01:07;;;;;;;62.20;33.00;;;;;;;-3.06;93.66;100029.16;105445;1288;25486;-58
2023/01/27 15:04:32;;;;;;;56.60;29.60;;;;;;;-3.03;93.65;100033.55;106115;1268;192557;-59
2023/01/27 15:07:15;;;;;;;56.10;27.80;;;;;;;-3.01;93.59;100036.83;109920;1282;22893;-59
2023/01/27 15:13:59;;;;;;;58.10;28.40;;;;;;;-2.93;93.63;100033.85;103296;1301;546040;-57
2023/01/27 15:16:50;;;;;;;49.90;25.80;;;;;;;-2.92;93.67;100030.56;109551;1285;23324;-59
2023/01/27 15:23:26;;;;;;;77.80;33.80;;;;;;;-2.81;93.77;100037.54;103179;1304;545038;-59
2023/01/27 15:26:00;;;;;;;56.00;29.80;;;;;;;-2.79;93.68;100034.59;109586;1282;22843;-58
2023/01/27 15:28:30;;;;;;;50.30;25.70;;;;;;;-2.78;93.70;100031.80;109614;1289;23303;-60
2023/01/27 15:34:03;;;;;;;49.60;26.80;;;;;;;-2.73;93.53;100030.89;103444;1304;544871;-57
2023/01/27 15:36:36;;;;;;;52.80;28.30;;;;;;;-2.74;93.58;100029.33;105499;1288;25349;-58
2023/01/27 15:39:10;;;;;;;59.30;28.20;;;;;;;-2.72;93.41;100025.98;105460;1288;26574;-58
2023/01/27 15:45:34;;;;;;;55.90;28.70;;;;;;;-2.70;93.33;100026.23;103187;1311;544970;-58
2023/01/27 15:48:05;;;;;;;53.40;25.60;;;;;;;-2.73;93.27;100024.84;109753;1279;23141;-59
2023/01/27 15:50:35;;;;;;;53.80;26.90;;;;;;;-2.75;93.37;100025.39;109655;1288;22213;-59